sensor_id;sensor_type;location;lat;lon;timestamp;P1;durP1;ratioP1;P2;durP2;ratioP2
12208;SDS011;6167;43.080;25.634;2022-08-19T00:01:15;11.38;;;10.07;;
12208;SDS011;6167;43.080;25.634;2022-08-19T00:03:42;10.65;;;9.70;;
12208;SDS011;6167;43.080;25.634;2022-08-19T00:06:09;11.07;;;10.07;;
12208;SDS011;6167;43.080;25.634;2022-08-19T00:08:36;10.70;;;9.60;;
12208;SDS011;6167;43.080;25.634;2022-08-19T00:11:03;11.27;;;10.00;;
12208;SDS011;6167;43.080;25.634;2022-08-19T00:13:32;11.43;;;10.23;;
12208;SDS011;6167;43.080;25.634;2022-08-19T00:15:59;11.07;;;10.05;;
12208;SDS011;6167;43.080;25.634;2022-08-19T00:18:26;11.30;;;10.27;;
12208;SDS011;6167;43.080;25.634;2022-08-19T00:20:53;13.70;;;10.52;;
12208;SDS011;6167;43.080;25.634;2022-08-19T00:23:20;11.63;;;10.43;;
12208;SDS011;6167;43.080;25.634;2022-08-19T00:25:47;12.55;;;11.18;;
12208;SDS011;6167;43.080;25.634;2022-08-19T00:28:14;11.30;;;10.25;;
12208;SDS011;6167;43.080;25.634;2022-08-19T00:30:42;12.95;;;11.65;;
12208;SDS011;6167;43.080;25.634;2022-08-19T00:33:09;11.50;;;10.48;;
12208;SDS011;6167;43.080;25.634;2022-08-19T00:35:36;12.00;;;10.85;;
12208;SDS011;6167;43.080;25.634;2022-08-19T00:38:03;11.65;;;10.45;;
12208;SDS011;6167;43.080;25.634;2022-08-19T00:40:31;11.43;;;10.30;;
12208;SDS011;6167;43.080;25.634;2022-08-19T00:42:59;11.00;;;9.88;;
12208;SDS011;6167;43.080;25.634;2022-08-19T00:45:26;12.15;;;10.30;;
12208;SDS011;6167;43.080;25.634;2022-08-19T00:48:00;10.77;;;9.68;;
12208;SDS011;6167;43.080;25.634;2022-08-19T00:50:29;11.25;;;10.32;;
12208;SDS011;6167;43.080;25.634;2022-08-19T00:52:56;11.95;;;10.75;;
12208;SDS011;6167;43.080;25.634;2022-08-19T00:55:25;11.32;;;10.13;;
12208;SDS011;6167;43.080;25.634;2022-08-19T00:57:55;11.93;;;10.75;;
12208;SDS011;6167;43.080;25.634;2022-08-19T01:00:25;10.75;;;9.80;;
12208;SDS011;6167;43.080;25.634;2022-08-19T01:02:54;11.45;;;10.32;;
12208;SDS011;6167;43.080;25.634;2022-08-19T01:05:24;11.85;;;10.75;;
12208;SDS011;6167;43.080;25.634;2022-08-19T01:07:54;11.00;;;9.90;;
12208;SDS011;6167;43.080;25.634;2022-08-19T01:10:23;12.18;;;10.90;;
12208;SDS011;6167;43.080;25.634;2022-08-19T01:12:52;13.00;;;10.75;;
12208;SDS011;6167;43.080;25.634;2022-08-19T01:15:22;11.50;;;10.30;;
12208;SDS011;6167;43.080;25.634;2022-08-19T01:17:54;12.38;;;10.40;;
12208;SDS011;6167;43.080;25.634;2022-08-19T01:20:25;12.43;;;11.23;;
12208;SDS011;6167;43.080;25.634;2022-08-19T01:22:54;12.15;;;10.80;;
12208;SDS011;6167;43.080;25.634;2022-08-19T01:25:24;11.68;;;10.48;;
12208;SDS011;6167;43.080;25.634;2022-08-19T01:27:55;12.30;;;10.48;;
12208;SDS011;6167;43.080;25.634;2022-08-19T01:30:25;11.40;;;10.23;;
12208;SDS011;6167;43.080;25.634;2022-08-19T01:32:56;10.93;;;9.88;;
12208;SDS011;6167;43.080;25.634;2022-08-19T01:35:26;11.73;;;10.63;;
12208;SDS011;6167;43.080;25.634;2022-08-19T01:37:56;11.13;;;9.90;;
12208;SDS011;6167;43.080;25.634;2022-08-19T01:40:26;11.10;;;9.38;;
12208;SDS011;6167;43.080;25.634;2022-08-19T01:42:55;10.65;;;9.65;;
12208;SDS011;6167;43.080;25.634;2022-08-19T01:45:23;10.65;;;9.70;;
12208;SDS011;6167;43.080;25.634;2022-08-19T01:47:51;12.00;;;10.30;;
12208;SDS011;6167;43.080;25.634;2022-08-19T01:50:20;11.30;;;9.80;;
12208;SDS011;6167;43.080;25.634;2022-08-19T01:52:48;12.02;;;10.85;;
12208;SDS011;6167;43.080;25.634;2022-08-19T01:55:17;11.70;;;10.50;;
12208;SDS011;6167;43.080;25.634;2022-08-19T01:57:47;11.60;;;10.40;;
12208;SDS011;6167;43.080;25.634;2022-08-19T02:00:17;12.15;;;10.25;;
12208;SDS011;6167;43.080;25.634;2022-08-19T02:02:46;11.63;;;10.40;;
12208;SDS011;6167;43.080;25.634;2022-08-19T02:05:12;11.73;;;10.57;;
12208;SDS011;6167;43.080;25.634;2022-08-19T02:07:40;12.35;;;11.25;;
12208;SDS011;6167;43.080;25.634;2022-08-19T02:10:09;13.07;;;11.65;;
12208;SDS011;6167;43.080;25.634;2022-08-19T02:12:39;15.10;;;11.38;;
12208;SDS011;6167;43.080;25.634;2022-08-19T02:15:06;12.38;;;11.18;;
12208;SDS011;6167;43.080;25.634;2022-08-19T02:17:33;12.93;;;11.23;;
12208;SDS011;6167;43.080;25.634;2022-08-19T02:20:01;12.13;;;10.75;;
12208;SDS011;6167;43.080;25.634;2022-08-19T02:22:29;14.18;;;11.82;;
12208;SDS011;6167;43.080;25.634;2022-08-19T02:24:56;12.95;;;11.65;;
12208;SDS011;6167;43.080;25.634;2022-08-19T02:27:23;13.32;;;11.95;;
12208;SDS011;6167;43.080;25.634;2022-08-19T02:29:52;13.07;;;11.80;;
12208;SDS011;6167;43.080;25.634;2022-08-19T02:32:19;14.60;;;13.10;;
12208;SDS011;6167;43.080;25.634;2022-08-19T02:34:46;13.25;;;11.40;;
12208;SDS011;6167;43.080;25.634;2022-08-19T02:37:14;13.32;;;11.93;;
12208;SDS011;6167;43.080;25.634;2022-08-19T02:39:54;14.30;;;12.80;;
12208;SDS011;6167;43.080;25.634;2022-08-19T02:42:21;13.02;;;11.80;;
12208;SDS011;6167;43.080;25.634;2022-08-19T02:44:49;15.70;;;14.15;;
12208;SDS011;6167;43.080;25.634;2022-08-19T02:47:18;16.90;;;12.82;;
12208;SDS011;6167;43.080;25.634;2022-08-19T02:49:45;15.50;;;13.80;;
12208;SDS011;6167;43.080;25.634;2022-08-19T02:52:15;15.13;;;13.57;;
12208;SDS011;6167;43.080;25.634;2022-08-19T02:54:42;15.98;;;14.52;;
12208;SDS011;6167;43.080;25.634;2022-08-19T02:57:09;15.15;;;13.73;;
12208;SDS011;6167;43.080;25.634;2022-08-19T02:59:36;13.80;;;12.43;;
12208;SDS011;6167;43.080;25.634;2022-08-19T03:02:04;14.48;;;13.20;;
12208;SDS011;6167;43.080;25.634;2022-08-19T03:04:32;14.00;;;12.60;;
12208;SDS011;6167;43.080;25.634;2022-08-19T03:06:59;14.20;;;12.70;;
12208;SDS011;6167;43.080;25.634;2022-08-19T03:09:26;13.82;;;12.55;;
12208;SDS011;6167;43.080;25.634;2022-08-19T03:11:54;14.02;;;12.73;;
12208;SDS011;6167;43.080;25.634;2022-08-19T03:14:21;13.73;;;12.43;;
12208;SDS011;6167;43.080;25.634;2022-08-19T03:16:49;13.52;;;12.23;;
12208;SDS011;6167;43.080;25.634;2022-08-19T03:19:19;14.15;;;11.93;;
12208;SDS011;6167;43.080;25.634;2022-08-19T03:21:49;14.68;;;11.77;;
12208;SDS011;6167;43.080;25.634;2022-08-19T03:24:17;13.77;;;12.27;;
12208;SDS011;6167;43.080;25.634;2022-08-19T03:26:46;12.88;;;11.68;;
12208;SDS011;6167;43.080;25.634;2022-08-19T03:29:15;12.27;;;11.07;;
12208;SDS011;6167;43.080;25.634;2022-08-19T03:31:42;13.18;;;11.35;;
12208;SDS011;6167;43.080;25.634;2022-08-19T03:34:10;12.82;;;11.57;;
12208;SDS011;6167;43.080;25.634;2022-08-19T03:36:39;12.77;;;11.57;;
12208;SDS011;6167;43.080;25.634;2022-08-19T03:39:07;12.50;;;11.23;;
12208;SDS011;6167;43.080;25.634;2022-08-19T03:41:36;14.73;;;11.70;;
12208;SDS011;6167;43.080;25.634;2022-08-19T03:44:05;14.60;;;11.73;;
12208;SDS011;6167;43.080;25.634;2022-08-19T03:46:33;12.75;;;11.45;;
12208;SDS011;6167;43.080;25.634;2022-08-19T03:49:02;14.25;;;11.70;;
12208;SDS011;6167;43.080;25.634;2022-08-19T03:51:33;13.73;;;11.93;;
12208;SDS011;6167;43.080;25.634;2022-08-19T03:54:02;14.13;;;11.68;;
12208;SDS011;6167;43.080;25.634;2022-08-19T03:56:32;13.52;;;12.07;;
12208;SDS011;6167;43.080;25.634;2022-08-19T03:59:00;15.77;;;12.32;;
12208;SDS011;6167;43.080;25.634;2022-08-19T04:01:27;13.10;;;11.68;;
12208;SDS011;6167;43.080;25.634;2022-08-19T04:03:55;15.10;;;11.82;;
12208;SDS011;6167;43.080;25.634;2022-08-19T04:06:24;12.48;;;11.23;;
12208;SDS011;6167;43.080;25.634;2022-08-19T04:08:52;13.93;;;10.60;;
12208;SDS011;6167;43.080;25.634;2022-08-19T04:11:21;12.60;;;10.65;;
12208;SDS011;6167;43.080;25.634;2022-08-19T04:13:51;12.45;;;10.60;;
12208;SDS011;6167;43.080;25.634;2022-08-19T04:16:19;11.82;;;10.65;;
12208;SDS011;6167;43.080;25.634;2022-08-19T04:18:47;10.98;;;9.88;;
12208;SDS011;6167;43.080;25.634;2022-08-19T04:21:15;10.68;;;9.68;;
12208;SDS011;6167;43.080;25.634;2022-08-19T04:23:44;10.88;;;9.77;;
12208;SDS011;6167;43.080;25.634;2022-08-19T04:26:12;11.60;;;10.45;;
12208;SDS011;6167;43.080;25.634;2022-08-19T04:28:40;12.10;;;10.95;;
12208;SDS011;6167;43.080;25.634;2022-08-19T04:31:11;11.68;;;10.63;;
12208;SDS011;6167;43.080;25.634;2022-08-19T04:33:39;14.15;;;12.65;;
12208;SDS011;6167;43.080;25.634;2022-08-19T04:36:06;15.18;;;13.05;;
12208;SDS011;6167;43.080;25.634;2022-08-19T04:38:35;14.63;;;13.25;;
12208;SDS011;6167;43.080;25.634;2022-08-19T04:41:02;15.40;;;13.60;;
12208;SDS011;6167;43.080;25.634;2022-08-19T04:43:58;15.55;;;13.93;;
12208;SDS011;6167;43.080;25.634;2022-08-19T04:46:29;26.70;;;23.92;;
12208;SDS011;6167;43.080;25.634;2022-08-19T04:48:57;33.03;;;29.67;;
12208;SDS011;6167;43.080;25.634;2022-08-19T04:51:24;25.52;;;22.90;;
12208;SDS011;6167;43.080;25.634;2022-08-19T04:53:51;43.25;;;38.95;;
12208;SDS011;6167;43.080;25.634;2022-08-19T04:56:19;20.10;;;18.00;;
12208;SDS011;6167;43.080;25.634;2022-08-19T04:58:47;14.95;;;13.55;;
12208;SDS011;6167;43.080;25.634;2022-08-19T05:01:17;17.20;;;14.07;;
12208;SDS011;6167;43.080;25.634;2022-08-19T05:03:48;21.63;;;19.45;;
12208;SDS011;6167;43.080;25.634;2022-08-19T05:06:16;17.90;;;15.45;;
12208;SDS011;6167;43.080;25.634;2022-08-19T05:08:44;17.33;;;15.50;;
12208;SDS011;6167;43.080;25.634;2022-08-19T05:11:13;15.95;;;14.32;;
12208;SDS011;6167;43.080;25.634;2022-08-19T05:13:42;19.83;;;13.63;;
12208;SDS011;6167;43.080;25.634;2022-08-19T05:16:09;16.13;;;13.38;;
12208;SDS011;6167;43.080;25.634;2022-08-19T05:18:37;12.40;;;11.05;;
12208;SDS011;6167;43.080;25.634;2022-08-19T05:21:23;16.25;;;13.40;;
12208;SDS011;6167;43.080;25.634;2022-08-19T05:24:08;19.65;;;14.75;;
12208;SDS011;6167;43.080;25.634;2022-08-19T05:26:35;15.70;;;14.10;;
12208;SDS011;6167;43.080;25.634;2022-08-19T05:29:03;16.77;;;15.23;;
12208;SDS011;6167;43.080;25.634;2022-08-19T05:31:32;18.65;;;15.00;;
12208;SDS011;6167;43.080;25.634;2022-08-19T05:34:00;18.45;;;15.48;;
12208;SDS011;6167;43.080;25.634;2022-08-19T05:36:33;18.60;;;16.77;;
12208;SDS011;6167;43.080;25.634;2022-08-19T05:39:04;18.70;;;15.82;;
12208;SDS011;6167;43.080;25.634;2022-08-19T05:41:32;19.15;;;15.52;;
12208;SDS011;6167;43.080;25.634;2022-08-19T05:44:00;18.05;;;16.17;;
12208;SDS011;6167;43.080;25.634;2022-08-19T05:46:31;20.20;;;17.77;;
12208;SDS011;6167;43.080;25.634;2022-08-19T05:48:57;23.20;;;18.02;;
12208;SDS011;6167;43.080;25.634;2022-08-19T05:51:24;17.77;;;16.17;;
12208;SDS011;6167;43.080;25.634;2022-08-19T05:53:53;18.65;;;16.75;;
12208;SDS011;6167;43.080;25.634;2022-08-19T05:56:20;19.65;;;17.70;;
12208;SDS011;6167;43.080;25.634;2022-08-19T05:58:47;16.88;;;15.40;;
12208;SDS011;6167;43.080;25.634;2022-08-19T06:01:15;18.75;;;16.67;;
12208;SDS011;6167;43.080;25.634;2022-08-19T06:03:44;17.73;;;16.10;;
12208;SDS011;6167;43.080;25.634;2022-08-19T06:06:13;18.65;;;16.95;;
12208;SDS011;6167;43.080;25.634;2022-08-19T06:08:41;17.13;;;15.43;;
12208;SDS011;6167;43.080;25.634;2022-08-19T06:11:19;20.48;;;18.67;;
12208;SDS011;6167;43.080;25.634;2022-08-19T06:13:49;20.00;;;18.25;;
12208;SDS011;6167;43.080;25.634;2022-08-19T06:16:18;20.70;;;18.90;;
12208;SDS011;6167;43.080;25.634;2022-08-19T06:18:47;20.63;;;18.80;;
12208;SDS011;6167;43.080;25.634;2022-08-19T06:21:17;16.17;;;14.88;;
12208;SDS011;6167;43.080;25.634;2022-08-19T06:23:45;17.45;;;15.63;;
12208;SDS011;6167;43.080;25.634;2022-08-19T06:26:12;15.60;;;13.95;;
12208;SDS011;6167;43.080;25.634;2022-08-19T06:28:41;14.38;;;13.18;;
12208;SDS011;6167;43.080;25.634;2022-08-19T06:31:11;15.10;;;13.60;;
12208;SDS011;6167;43.080;25.634;2022-08-19T06:33:40;14.98;;;13.60;;
12208;SDS011;6167;43.080;25.634;2022-08-19T06:36:07;17.65;;;13.82;;
12208;SDS011;6167;43.080;25.634;2022-08-19T06:38:42;13.95;;;12.65;;
12208;SDS011;6167;43.080;25.634;2022-08-19T06:41:09;11.93;;;10.80;;
12208;SDS011;6167;43.080;25.634;2022-08-19T06:43:36;10.77;;;9.90;;
12208;SDS011;6167;43.080;25.634;2022-08-19T06:46:08;12.52;;;9.85;;
12208;SDS011;6167;43.080;25.634;2022-08-19T06:48:37;11.23;;;10.23;;
12208;SDS011;6167;43.080;25.634;2022-08-19T06:51:04;11.82;;;10.63;;
12208;SDS011;6167;43.080;25.634;2022-08-19T06:53:32;10.98;;;9.98;;
12208;SDS011;6167;43.080;25.634;2022-08-19T06:55:59;10.73;;;9.75;;
12208;SDS011;6167;43.080;25.634;2022-08-19T06:58:27;11.05;;;9.98;;
12208;SDS011;6167;43.080;25.634;2022-08-19T07:00:57;10.18;;;9.25;;
12208;SDS011;6167;43.080;25.634;2022-08-19T07:03:28;13.02;;;11.68;;
12208;SDS011;6167;43.080;25.634;2022-08-19T07:05:57;14.48;;;12.95;;
12208;SDS011;6167;43.080;25.634;2022-08-19T07:08:29;16.65;;;12.00;;
12208;SDS011;6167;43.080;25.634;2022-08-19T07:10:56;9.18;;;8.20;;
12208;SDS011;6167;43.080;25.634;2022-08-19T07:13:23;8.18;;;7.35;;
12208;SDS011;6167;43.080;25.634;2022-08-19T07:15:50;8.38;;;7.68;;
12208;SDS011;6167;43.080;25.634;2022-08-19T07:18:18;9.82;;;7.25;;
12208;SDS011;6167;43.080;25.634;2022-08-19T07:20:48;7.80;;;7.18;;
12208;SDS011;6167;43.080;25.634;2022-08-19T07:23:15;7.13;;;6.53;;
12208;SDS011;6167;43.080;25.634;2022-08-19T07:25:42;7.38;;;6.68;;
12208;SDS011;6167;43.080;25.634;2022-08-19T07:28:09;7.28;;;6.68;;
12208;SDS011;6167;43.080;25.634;2022-08-19T07:30:37;7.07;;;6.47;;
12208;SDS011;6167;43.080;25.634;2022-08-19T07:33:05;6.95;;;6.35;;
12208;SDS011;6167;43.080;25.634;2022-08-19T07:35:33;6.88;;;6.25;;
12208;SDS011;6167;43.080;25.634;2022-08-19T07:38:01;6.65;;;6.00;;
12208;SDS011;6167;43.080;25.634;2022-08-19T07:40:31;8.40;;;7.20;;
12208;SDS011;6167;43.080;25.634;2022-08-19T07:42:58;7.53;;;6.82;;
12208;SDS011;6167;43.080;25.634;2022-08-19T07:45:25;7.18;;;6.63;;
12208;SDS011;6167;43.080;25.634;2022-08-19T07:47:52;9.02;;;7.05;;
12208;SDS011;6167;43.080;25.634;2022-08-19T07:50:19;7.35;;;6.65;;
12208;SDS011;6167;43.080;25.634;2022-08-19T07:52:47;10.38;;;7.40;;
12208;SDS011;6167;43.080;25.634;2022-08-19T07:55:18;7.60;;;6.78;;
12208;SDS011;6167;43.080;25.634;2022-08-19T07:57:48;6.88;;;6.28;;
12208;SDS011;6167;43.080;25.634;2022-08-19T08:00:17;7.55;;;6.85;;
12208;SDS011;6167;43.080;25.634;2022-08-19T08:02:44;8.05;;;6.35;;
12208;SDS011;6167;43.080;25.634;2022-08-19T08:05:11;7.40;;;6.75;;
12208;SDS011;6167;43.080;25.634;2022-08-19T08:07:56;7.50;;;6.80;;
12208;SDS011;6167;43.080;25.634;2022-08-19T08:10:41;7.10;;;6.40;;
12208;SDS011;6167;43.080;25.634;2022-08-19T08:13:09;7.28;;;6.57;;
12208;SDS011;6167;43.080;25.634;2022-08-19T08:15:36;7.05;;;6.45;;
12208;SDS011;6167;43.080;25.634;2022-08-19T08:18:04;8.10;;;6.95;;
12208;SDS011;6167;43.080;25.634;2022-08-19T08:20:31;7.50;;;6.85;;
12208;SDS011;6167;43.080;25.634;2022-08-19T08:22:58;7.43;;;6.57;;
12208;SDS011;6167;43.080;25.634;2022-08-19T08:25:56;8.48;;;7.57;;
12208;SDS011;6167;43.080;25.634;2022-08-19T08:28:24;7.38;;;6.78;;
12208;SDS011;6167;43.080;25.634;2022-08-19T08:30:52;7.82;;;6.90;;
12208;SDS011;6167;43.080;25.634;2022-08-19T08:33:20;7.30;;;6.60;;
12208;SDS011;6167;43.080;25.634;2022-08-19T08:35:48;9.18;;;7.40;;
12208;SDS011;6167;43.080;25.634;2022-08-19T08:38:15;7.80;;;7.10;;
12208;SDS011;6167;43.080;25.634;2022-08-19T08:40:44;8.88;;;7.45;;
12208;SDS011;6167;43.080;25.634;2022-08-19T08:43:21;8.93;;;8.02;;
12208;SDS011;6167;43.080;25.634;2022-08-19T08:45:52;8.65;;;7.80;;
12208;SDS011;6167;43.080;25.634;2022-08-19T08:48:30;6.88;;;6.28;;
12208;SDS011;6167;43.080;25.634;2022-08-19T08:51:05;9.73;;;8.77;;
12208;SDS011;6167;43.080;25.634;2022-08-19T08:53:36;8.30;;;7.03;;
12208;SDS011;6167;43.080;25.634;2022-08-19T08:56:06;7.03;;;6.28;;
12208;SDS011;6167;43.080;25.634;2022-08-19T08:58:41;7.68;;;6.97;;
12208;SDS011;6167;43.080;25.634;2022-08-19T09:01:16;7.68;;;6.97;;
12208;SDS011;6167;43.080;25.634;2022-08-19T09:03:44;7.93;;;6.72;;
12208;SDS011;6167;43.080;25.634;2022-08-19T09:06:12;11.88;;;9.73;;
12208;SDS011;6167;43.080;25.634;2022-08-19T09:08:49;15.95;;;14.27;;
12208;SDS011;6167;43.080;25.634;2022-08-19T09:11:29;9.75;;;8.77;;
12208;SDS011;6167;43.080;25.634;2022-08-19T09:14:08;6.82;;;6.32;;
12208;SDS011;6167;43.080;25.634;2022-08-19T09:16:43;8.93;;;8.13;;
12208;SDS011;6167;43.080;25.634;2022-08-19T09:19:10;8.60;;;7.80;;
12208;SDS011;6167;43.080;25.634;2022-08-19T09:21:36;8.52;;;7.57;;
12208;SDS011;6167;43.080;25.634;2022-08-19T09:24:05;8.55;;;7.75;;
12208;SDS011;6167;43.080;25.634;2022-08-19T09:26:32;7.47;;;6.78;;
12208;SDS011;6167;43.080;25.634;2022-08-19T09:28:59;7.00;;;6.40;;
12208;SDS011;6167;43.080;25.634;2022-08-19T09:31:28;8.38;;;7.57;;
12208;SDS011;6167;43.080;25.634;2022-08-19T09:33:57;6.95;;;6.45;;
12208;SDS011;6167;43.080;25.634;2022-08-19T09:36:27;8.68;;;6.70;;
12208;SDS011;6167;43.080;25.634;2022-08-19T09:38:57;10.48;;;8.45;;
12208;SDS011;6167;43.080;25.634;2022-08-19T09:41:25;11.60;;;6.82;;
12208;SDS011;6167;43.080;25.634;2022-08-19T09:43:54;8.40;;;7.03;;
12208;SDS011;6167;43.080;25.634;2022-08-19T09:46:22;7.53;;;6.95;;
12208;SDS011;6167;43.080;25.634;2022-08-19T09:48:52;10.38;;;8.95;;
12208;SDS011;6167;43.080;25.634;2022-08-19T09:51:21;15.82;;;14.30;;
12208;SDS011;6167;43.080;25.634;2022-08-19T09:53:49;9.65;;;8.75;;
12208;SDS011;6167;43.080;25.634;2022-08-19T09:56:19;9.50;;;8.55;;
12208;SDS011;6167;43.080;25.634;2022-08-19T09:58:48;7.35;;;6.72;;
12208;SDS011;6167;43.080;25.634;2022-08-19T10:01:16;8.88;;;8.07;;
12208;SDS011;6167;43.080;25.634;2022-08-19T10:03:46;7.25;;;6.65;;
12208;SDS011;6167;43.080;25.634;2022-08-19T10:06:15;7.70;;;7.10;;
12208;SDS011;6167;43.080;25.634;2022-08-19T10:08:42;7.03;;;6.38;;
12208;SDS011;6167;43.080;25.634;2022-08-19T10:11:09;7.47;;;6.65;;
12208;SDS011;6167;43.080;25.634;2022-08-19T10:13:37;7.53;;;6.82;;
12208;SDS011;6167;43.080;25.634;2022-08-19T10:16:05;7.07;;;6.57;;
12208;SDS011;6167;43.080;25.634;2022-08-19T10:18:34;7.13;;;6.55;;
12208;SDS011;6167;43.080;25.634;2022-08-19T10:21:04;7.55;;;6.93;;
12208;SDS011;6167;43.080;25.634;2022-08-19T10:23:35;8.90;;;6.97;;
12208;SDS011;6167;43.080;25.634;2022-08-19T10:26:02;7.20;;;6.60;;
12208;SDS011;6167;43.080;25.634;2022-08-19T10:28:32;8.10;;;7.30;;
12208;SDS011;6167;43.080;25.634;2022-08-19T10:31:06;7.47;;;6.88;;
12208;SDS011;6167;43.080;25.634;2022-08-19T10:33:33;7.07;;;6.45;;
12208;SDS011;6167;43.080;25.634;2022-08-19T10:36:02;7.63;;;6.85;;
12208;SDS011;6167;43.080;25.634;2022-08-19T10:38:30;7.55;;;6.85;;
12208;SDS011;6167;43.080;25.634;2022-08-19T10:41:07;6.97;;;6.43;;
12208;SDS011;6167;43.080;25.634;2022-08-19T10:43:34;8.55;;;7.70;;
12208;SDS011;6167;43.080;25.634;2022-08-19T10:46:03;8.65;;;7.03;;
12208;SDS011;6167;43.080;25.634;2022-08-19T10:48:31;9.77;;;7.07;;
12208;SDS011;6167;43.080;25.634;2022-08-19T10:50:59;7.00;;;6.40;;
12208;SDS011;6167;43.080;25.634;2022-08-19T10:53:43;7.22;;;6.63;;
12208;SDS011;6167;43.080;25.634;2022-08-19T10:56:11;7.38;;;6.78;;
12208;SDS011;6167;43.080;25.634;2022-08-19T10:58:56;13.38;;;8.52;;
12208;SDS011;6167;43.080;25.634;2022-08-19T11:01:23;9.15;;;8.25;;
12208;SDS011;6167;43.080;25.634;2022-08-19T11:03:50;8.07;;;7.28;;
12208;SDS011;6167;43.080;25.634;2022-08-19T11:06:17;7.60;;;6.97;;
12208;SDS011;6167;43.080;25.634;2022-08-19T11:08:46;6.15;;;5.65;;
12208;SDS011;6167;43.080;25.634;2022-08-19T11:11:14;6.78;;;6.28;;
12208;SDS011;6167;43.080;25.634;2022-08-19T11:13:41;7.13;;;6.10;;
12208;SDS011;6167;43.080;25.634;2022-08-19T11:16:10;7.05;;;6.40;;
12208;SDS011;6167;43.080;25.634;2022-08-19T11:18:40;7.63;;;6.93;;
12208;SDS011;6167;43.080;25.634;2022-08-19T11:21:10;7.15;;;6.55;;
12208;SDS011;6167;43.080;25.634;2022-08-19T11:23:41;6.88;;;6.28;;
12208;SDS011;6167;43.080;25.634;2022-08-19T11:26:09;7.07;;;6.20;;
12208;SDS011;6167;43.080;25.634;2022-08-19T11:28:38;7.30;;;6.00;;
12208;SDS011;6167;43.080;25.634;2022-08-19T11:31:09;6.68;;;6.00;;
12208;SDS011;6167;43.080;25.634;2022-08-19T11:33:36;13.68;;;6.93;;
12208;SDS011;6167;43.080;25.634;2022-08-19T11:36:04;11.48;;;7.85;;
12208;SDS011;6167;43.080;25.634;2022-08-19T11:38:32;6.20;;;5.60;;
12208;SDS011;6167;43.080;25.634;2022-08-19T11:41:01;27.10;;;7.43;;
12208;SDS011;6167;43.080;25.634;2022-08-19T11:43:30;30.70;;;8.05;;
12208;SDS011;6167;43.080;25.634;2022-08-19T11:45:59;19.83;;;6.72;;
12208;SDS011;6167;43.080;25.634;2022-08-19T11:48:26;10.23;;;7.78;;
12208;SDS011;6167;43.080;25.634;2022-08-19T11:50:53;7.93;;;7.03;;
12208;SDS011;6167;43.080;25.634;2022-08-19T11:53:21;8.10;;;7.40;;
12208;SDS011;6167;43.080;25.634;2022-08-19T11:55:49;8.07;;;7.38;;
12208;SDS011;6167;43.080;25.634;2022-08-19T11:58:16;7.68;;;6.97;;
12208;SDS011;6167;43.080;25.634;2022-08-19T12:00:44;8.23;;;7.15;;
12208;SDS011;6167;43.080;25.634;2022-08-19T12:03:12;15.18;;;7.90;;
12208;SDS011;6167;43.080;25.634;2022-08-19T12:05:40;6.28;;;5.65;;
12208;SDS011;6167;43.080;25.634;2022-08-19T12:08:08;6.20;;;5.70;;
12208;SDS011;6167;43.080;25.634;2022-08-19T12:10:36;6.80;;;6.22;;
12208;SDS011;6167;43.080;25.634;2022-08-19T12:13:03;6.47;;;5.88;;
12208;SDS011;6167;43.080;25.634;2022-08-19T12:15:34;6.40;;;5.82;;
12208;SDS011;6167;43.080;25.634;2022-08-19T12:18:02;7.72;;;7.03;;
12208;SDS011;6167;43.080;25.634;2022-08-19T12:20:31;5.50;;;5.00;;
12208;SDS011;6167;43.080;25.634;2022-08-19T12:23:01;6.82;;;5.50;;
12208;SDS011;6167;43.080;25.634;2022-08-19T12:25:28;5.68;;;5.18;;
12208;SDS011;6167;43.080;25.634;2022-08-19T12:27:56;5.78;;;5.10;;
12208;SDS011;6167;43.080;25.634;2022-08-19T12:30:23;6.95;;;5.07;;
12208;SDS011;6167;43.080;25.634;2022-08-19T12:32:50;6.30;;;5.38;;
12208;SDS011;6167;43.080;25.634;2022-08-19T12:35:17;7.75;;;6.68;;
12208;SDS011;6167;43.080;25.634;2022-08-19T12:37:46;6.30;;;5.80;;
12208;SDS011;6167;43.080;25.634;2022-08-19T12:40:15;8.18;;;6.80;;
12208;SDS011;6167;43.080;25.634;2022-08-19T12:42:42;8.43;;;6.75;;
12208;SDS011;6167;43.080;25.634;2022-08-19T12:45:10;9.77;;;6.70;;
12208;SDS011;6167;43.080;25.634;2022-08-19T12:47:38;6.85;;;6.18;;
12208;SDS011;6167;43.080;25.634;2022-08-19T12:50:06;6.63;;;5.90;;
12208;SDS011;6167;43.080;25.634;2022-08-19T12:52:34;6.28;;;5.72;;
12208;SDS011;6167;43.080;25.634;2022-08-19T12:55:05;6.55;;;5.70;;
12208;SDS011;6167;43.080;25.634;2022-08-19T12:57:34;7.35;;;6.75;;
12208;SDS011;6167;43.080;25.634;2022-08-19T13:00:03;6.90;;;6.30;;
12208;SDS011;6167;43.080;25.634;2022-08-19T13:02:35;6.80;;;6.10;;
12208;SDS011;6167;43.080;25.634;2022-08-19T13:05:02;7.85;;;6.47;;
12208;SDS011;6167;43.080;25.634;2022-08-19T13:07:31;7.47;;;6.10;;
12208;SDS011;6167;43.080;25.634;2022-08-19T13:09:59;7.32;;;6.10;;
12208;SDS011;6167;43.080;25.634;2022-08-19T13:12:27;7.70;;;6.72;;
12208;SDS011;6167;43.080;25.634;2022-08-19T13:14:54;7.03;;;6.43;;
12208;SDS011;6167;43.080;25.634;2022-08-19T13:17:21;6.70;;;5.78;;
12208;SDS011;6167;43.080;25.634;2022-08-19T13:19:49;7.07;;;5.80;;
12208;SDS011;6167;43.080;25.634;2022-08-19T13:22:17;7.05;;;5.93;;
12208;SDS011;6167;43.080;25.634;2022-08-19T13:24:44;6.22;;;5.72;;
12208;SDS011;6167;43.080;25.634;2022-08-19T13:27:11;6.60;;;5.78;;
12208;SDS011;6167;43.080;25.634;2022-08-19T13:29:40;7.45;;;6.28;;
12208;SDS011;6167;43.080;25.634;2022-08-19T13:32:25;6.78;;;6.18;;
12208;SDS011;6167;43.080;25.634;2022-08-19T13:35:09;6.53;;;5.93;;
12208;SDS011;6167;43.080;25.634;2022-08-19T13:37:37;6.85;;;6.07;;
12208;SDS011;6167;43.080;25.634;2022-08-19T13:40:11;7.10;;;6.40;;
12208;SDS011;6167;43.080;25.634;2022-08-19T13:42:43;7.00;;;5.97;;
12208;SDS011;6167;43.080;25.634;2022-08-19T13:45:13;7.15;;;5.97;;
12208;SDS011;6167;43.080;25.634;2022-08-19T13:47:44;6.40;;;5.90;;
12208;SDS011;6167;43.080;25.634;2022-08-19T13:50:12;6.85;;;6.20;;
12208;SDS011;6167;43.080;25.634;2022-08-19T13:52:41;7.25;;;6.57;;
12208;SDS011;6167;43.080;25.634;2022-08-19T13:55:09;6.65;;;6.13;;
12208;SDS011;6167;43.080;25.634;2022-08-19T13:57:37;6.63;;;6.00;;
12208;SDS011;6167;43.080;25.634;2022-08-19T14:00:05;9.75;;;6.50;;
12208;SDS011;6167;43.080;25.634;2022-08-19T14:02:36;7.93;;;6.63;;
12208;SDS011;6167;43.080;25.634;2022-08-19T14:05:04;14.35;;;11.65;;
12208;SDS011;6167;43.080;25.634;2022-08-19T14:07:33;9.30;;;7.65;;
12208;SDS011;6167;43.080;25.634;2022-08-19T14:10:01;7.47;;;6.00;;
12208;SDS011;6167;43.080;25.634;2022-08-19T14:12:29;6.90;;;6.13;;
12208;SDS011;6167;43.080;25.634;2022-08-19T14:14:57;7.18;;;5.93;;
12208;SDS011;6167;43.080;25.634;2022-08-19T14:17:24;10.02;;;7.70;;
12208;SDS011;6167;43.080;25.634;2022-08-19T14:19:57;7.40;;;6.75;;
12208;SDS011;6167;43.080;25.634;2022-08-19T14:22:25;6.47;;;5.97;;
12208;SDS011;6167;43.080;25.634;2022-08-19T14:24:53;18.70;;;13.18;;
12208;SDS011;6167;43.080;25.634;2022-08-19T14:27:20;9.55;;;6.93;;
12208;SDS011;6167;43.080;25.634;2022-08-19T14:29:49;6.43;;;5.82;;
12208;SDS011;6167;43.080;25.634;2022-08-19T14:32:16;6.28;;;5.68;;
12208;SDS011;6167;43.080;25.634;2022-08-19T14:34:43;8.23;;;5.97;;
12208;SDS011;6167;43.080;25.634;2022-08-19T14:37:12;6.70;;;5.85;;
12208;SDS011;6167;43.080;25.634;2022-08-19T14:39:40;9.73;;;6.63;;
12208;SDS011;6167;43.080;25.634;2022-08-19T14:42:07;8.20;;;7.10;;
12208;SDS011;6167;43.080;25.634;2022-08-19T14:44:34;6.93;;;6.25;;
12208;SDS011;6167;43.080;25.634;2022-08-19T14:47:01;8.40;;;6.95;;